Time;durP1;ratioP1;P1;durP2;ratioP2;P2;SDS_P1;SDS_P2;PMS_P1;PMS_P2;Temp;Humidity;BMP_temperature;BMP_pressure;BME280_temperature;BME280_humidity;BME280_pressure;Samples;Min_cycle;Max_cycle;Signal;HPM_P1;HPM_P2
2021/06/26 00:04:39;;;;;;;6.30;5.22;;;20.50;62.70;;;;;;10418164;28;20454;-51
2021/06/26 00:09:39;;;;;;;7.13;6.43;;;20.50;62.50;;;;;;10417894;28;20029;-49
2021/06/26 00:14:40;;;;;;;7.00;5.53;;;20.50;62.50;;;;;;10416662;28;20033;-52
2021/06/26 00:19:41;;;;;;;6.63;5.93;;;20.50;62.70;;;;;;10417401;28;20102;-53
2021/06/26 00:24:42;;;;;;;7.47;6.40;;;20.50;62.70;;;;;;10417854;28;20045;-53
2021/06/26 00:29:42;;;;;;;6.45;5.78;;;20.50;62.70;;;;;;10417231;28;20367;-50
2021/06/26 00:34:43;;;;;;;7.18;6.43;;;20.50;62.70;;;;;;10416923;28;20105;-52
2021/06/26 00:39:43;;;;;;;6.65;5.65;;;20.50;62.70;;;;;;10416761;28;20064;-49
2021/06/26 00:44:44;;;;;;;6.85;5.93;;;20.50;62.80;;;;;;10416800;28;20029;-52
2021/06/26 00:49:45;;;;;;;7.57;6.72;;;20.40;62.70;;;;;;10416332;28;20077;-51
2021/06/26 00:54:46;;;;;;;6.60;5.80;;;20.50;62.70;;;;;;10416481;28;20468;-52
2021/06/26 00:59:47;;;;;;;7.43;6.68;;;20.50;62.60;;;;;;10424617;28;20033;-53
2021/06/26 01:04:48;;;;;;;6.53;5.88;;;20.50;62.50;;;;;;10414530;28;20029;-50
2021/06/26 01:09:49;;;;;;;6.30;5.70;;;20.50;62.60;;;;;;10415570;28;20034;-49
2021/06/26 01:14:50;;;;;;;6.80;6.03;;;20.40;63.20;;;;;;10415056;28;20037;-51
2021/06/26 01:19:51;;;;;;;6.63;5.30;;;20.40;62.70;;;;;;10415426;28;20530;-51
2021/06/26 01:24:53;;;;;;;6.75;5.68;;;20.40;62.70;;;;;;10415062;28;20159;-54
2021/06/26 01:29:54;;;;;;;6.90;6.20;;;20.40;62.70;;;;;;10430246;28;20025;-53
2021/06/26 01:34:55;;;;;;;6.00;5.35;;;20.40;62.70;;;;;;10413424;28;20044;-50
2021/06/26 01:39:55;;;;;;;5.97;5.15;;;20.40;62.70;;;;;;10414456;28;20125;-50
2021/06/26 01:44:56;;;;;;;7.00;6.30;;;20.40;62.70;;;;;;10414485;28;20499;-49
2021/06/26 01:49:57;;;;;;;6.22;5.63;;;20.40;62.60;;;;;;10414131;28;20509;-49
2021/06/26 01:54:57;;;;;;;6.68;5.53;;;20.40;62.60;;;;;;10414067;28;20462;-51
2021/06/26 01:59:58;;;;;;;6.40;5.38;;;20.40;62.50;;;;;;10422561;28;20079;-52
2021/06/26 02:04:58;;;;;;;6.25;5.63;;;20.40;62.60;;;;;;10413848;28;20076;-49
2021/06/26 02:10:00;;;;;;;6.07;5.47;;;20.40;62.60;;;;;;10414108;28;20426;-49
2021/06/26 02:15:00;;;;;;;6.22;5.63;;;20.40;62.60;;;;;;10412579;28;20384;-49
2021/06/26 02:20:03;;;;;;;6.45;5.85;;;20.40;62.60;;;;;;10413455;28;20029;-53
2021/06/26 02:25:06;;;;;;;6.68;5.97;;;20.40;62.60;;;;;;10417632;28;20029;-51
2021/06/26 02:30:08;;;;;;;8.10;6.25;;;20.40;62.60;;;;;;10422421;28;20033;-52
2021/06/26 02:35:10;;;;;;;6.82;5.53;;;20.40;62.60;;;;;;10421590;28;20037;-53
2021/06/26 02:40:11;;;;;;;7.07;5.85;;;20.30;62.50;;;;;;10421545;28;20132;-49
2021/06/26 02:45:13;;;;;;;6.18;5.47;;;20.40;62.50;;;;;;10421585;28;20025;-53
2021/06/26 02:50:14;;;;;;;6.07;5.35;;;20.40;62.50;;;;;;10419518;28;20091;-52
2021/06/26 02:55:15;;;;;;;5.97;5.38;;;20.30;62.50;;;;;;10421082;28;20464;-51
2021/06/26 03:00:16;;;;;;;6.10;5.05;;;20.30;62.50;;;;;;10427713;28;20037;-51
2021/06/26 03:05:17;;;;;;;5.95;5.35;;;20.30;62.50;;;;;;10420925;28;20064;-52
2021/06/26 03:10:19;;;;;;;5.43;4.82;;;20.30;62.50;;;;;;10418769;28;20041;-48
2021/06/26 03:15:20;;;;;;;7.00;6.30;;;20.30;62.50;;;;;;10418562;28;20026;-50
2021/06/26 03:20:20;;;;;;;5.68;5.07;;;20.30;62.50;;;;;;10419430;28;20172;-54
2021/06/26 03:25:21;;;;;;;6.70;5.78;;;20.30;62.50;;;;;;10418166;28;20029;-51
2021/06/26 03:30:22;;;;;;;5.90;5.25;;;20.30;62.60;;;;;;10415129;28;20033;-50
2021/06/26 03:35:23;;;;;;;6.63;5.78;;;20.30;62.50;;;;;;10419640;28;20112;-49
2021/06/26 03:40:23;;;;;;;6.20;5.57;;;20.30;62.50;;;;;;10419560;28;20025;-49
2021/06/26 03:45:24;;;;;;;6.05;5.25;;;20.30;62.50;;;;;;10420138;28;20489;-55
2021/06/26 03:50:25;;;;;;;6.35;5.38;;;20.30;62.50;;;;;;10419557;28;20136;-53
2021/06/26 03:55:25;;;;;;;6.03;5.38;;;20.30;62.50;;;;;;10419382;28;20045;-49
2021/06/26 04:00:26;;;;;;;5.72;5.13;;;20.30;62.60;;;;;;10428500;28;20030;-50
2021/06/26 04:05:27;;;;;;;6.25;5.63;;;20.30;62.50;;;;;;10418516;28;20025;-52
2021/06/26 04:10:28;;;;;;;6.57;4.82;;;20.30;62.60;;;;;;10418441;28;20109;-52
2021/06/26 04:15:28;;;;;;;5.30;4.80;;;20.30;62.60;;;;;;10418222;28;20040;-51
2021/06/26 04:20:29;;;;;;;6.18;5.57;;;20.30;62.60;;;;;;10417967;28;20439;-52
2021/06/26 04:25:30;;;;;;;6.00;5.40;;;20.30;62.60;;;;;;10417732;28;20029;-51
2021/06/26 04:30:31;;;;;;;6.80;4.97;;;20.30;62.30;;;;;;10417675;28;20025;-51
2021/06/26 04:35:32;;;;;;;5.63;4.55;;;20.30;62.30;;;;;;10417458;28;20076;-49
2021/06/26 04:40:32;;;;;;;5.63;4.82;;;20.30;62.40;;;;;;10417571;28;20576;-50
2021/06/26 04:45:33;;;;;;;6.63;5.22;;;20.30;62.40;;;;;;10416729;28;20052;-52
2021/06/26 04:50:35;;;;;;;5.72;4.63;;;20.30;62.40;;;;;;10415439;28;20558;-54
2021/06/26 04:55:36;;;;;;;5.35;4.65;;;20.30;62.50;;;;;;10417161;28;20361;-52
2021/06/26 05:00:36;;;;;;;5.85;4.75;;;20.30;62.40;;;;;;10425496;28;20036;-50
2021/06/26 05:05:37;;;;;;;5.32;4.57;;;20.30;62.40;;;;;;10414948;28;20033;-52
2021/06/26 05:10:39;;;;;;;5.85;5.00;;;20.30;62.50;;;;;;10416018;28;20112;-52
2021/06/26 05:15:41;;;;;;;5.72;4.95;;;20.30;62.50;;;;;;10415900;28;20145;-53
2021/06/26 05:20:42;;;;;;;5.38;4.88;;;20.30;62.50;;;;;;10415631;28;20147;-53
2021/06/26 05:25:44;;;;;;;5.35;4.68;;;20.30;62.50;;;;;;10415731;28;20147;-51
2021/06/26 05:30:46;;;;;;;5.38;4.88;;;20.20;62.50;;;;;;10415591;28;20021;-50
2021/06/26 05:35:49;;;;;;;7.45;5.53;;;20.20;62.60;;;;;;10415020;28;20041;-53
2021/06/26 05:40:50;;;;;;;5.80;5.07;;;20.20;62.70;;;;;;10414930;28;20528;-52
2021/06/26 05:45:51;;;;;;;5.45;4.88;;;20.30;62.80;;;;;;10414775;28;20036;-53
2021/06/26 05:50:52;;;;;;;5.45;4.75;;;20.30;62.80;;;;;;10429814;28;20041;-52
2021/06/26 05:55:59;;;;;;;6.07;5.45;;;20.30;62.90;;;;;;10414822;28;20025;-49
2021/06/26 06:01:00;;;;;;;5.68;5.07;;;20.20;62.90;;;;;;10417513;28;20022;-52
2021/06/26 06:06:01;;;;;;;5.78;5.18;;;20.30;62.90;;;;;;10414181;28;20033;-53
2021/06/26 06:11:02;;;;;;;5.65;5.03;;;20.20;62.90;;;;;;10396455;28;20374;-52
2021/06/26 06:16:03;;;;;;;5.13;4.57;;;20.20;62.70;;;;;;10414420;28;20041;-52
2021/06/26 06:21:04;;;;;;;6.32;5.43;;;20.30;62.70;;;;;;10414037;28;20026;-54
2021/06/26 06:26:04;;;;;;;5.53;4.70;;;20.30;62.90;;;;;;10413768;28;20462;-51
2021/06/26 06:31:05;;;;;;;5.53;4.80;;;20.20;62.90;;;;;;10414179;28;20061;-52
2021/06/26 06:36:07;;;;;;;6.13;5.32;;;20.30;63.00;;;;;;10413616;28;20112;-53
2021/06/26 06:41:08;;;;;;;5.10;4.40;;;20.30;63.10;;;;;;10413497;28;20104;-53
2021/06/26 06:46:08;;;;;;;6.65;5.28;;;20.30;63.10;;;;;;10413852;28;20100;-52
2021/06/26 06:51:09;;;;;;;5.85;5.25;;;20.30;63.20;;;;;;10413151;28;20045;-53
2021/06/26 06:56:11;;;;;;;6.68;5.85;;;20.30;63.40;;;;;;10413600;28;20061;-53
2021/06/26 07:01:11;;;;;;;7.55;6.40;;;20.30;63.60;;;;;;10420646;28;20087;-50
2021/06/26 07:06:12;;;;;;;5.32;4.65;;;20.30;63.90;;;;;;10413461;28;20029;-52
2021/06/26 07:11:13;;;;;;;6.03;5.43;;;20.30;64.40;;;;;;10416958;28;20044;-50
2021/06/26 07:16:13;;;;;;;5.78;5.00;;;20.30;63.90;;;;;;10420665;28;20478;-52
2021/06/26 07:21:14;;;;;;;5.90;5.30;;;20.40;63.90;;;;;;10420417;28;20470;-55
2021/06/26 07:26:15;;;;;;;6.35;5.20;;;20.30;63.90;;;;;;10420208;28;20257;-52
2021/06/26 07:31:16;;;;;;;8.18;5.88;;;20.40;64.00;;;;;;10435517;28;20041;-53
2021/06/26 07:36:16;;;;;;;8.15;5.95;;;20.40;64.10;;;;;;10419779;28;20390;-53
2021/06/26 07:41:18;;;;;;;6.22;5.63;;;20.40;64.00;;;;;;10419556;28;20124;-52
2021/06/26 07:46:18;;;;;;;5.90;5.10;;;20.40;64.10;;;;;;10419924;28;20040;-53
2021/06/26 07:51:19;;;;;;;5.28;4.65;;;20.40;64.10;;;;;;10419009;28;20045;-53
2021/06/26 07:56:20;;;;;;;6.10;5.25;;;20.50;64.00;;;;;;10419235;28;20409;-51
2021/06/26 08:01:21;;;;;;;4.78;4.28;;;20.50;64.00;;;;;;10427508;28;20033;-52
2021/06/26 08:06:21;;;;;;;5.80;5.18;;;20.50;64.00;;;;;;10418803;28;20057;-52
2021/06/26 08:11:22;;;;;;;5.85;5.00;;;20.50;64.00;;;;;;10419065;28;20057;-51
2021/06/26 08:16:26;;;;;;;5.95;4.65;;;20.50;64.50;;;;;;10417029;28;20105;-53
2021/06/26 08:21:27;;;;;;;8.68;5.85;;;20.50;63.90;;;;;;10415704;28;20030;-54
2021/06/26 08:26:27;;;;;;;5.63;4.97;;;20.50;63.90;;;;;;10417642;28;20025;-52
2021/06/26 08:31:28;;;;;;;5.68;4.97;;;20.50;63.90;;;;;;10416495;28;20491;-51
2021/06/26 08:36:29;;;;;;;7.30;5.47;;;20.60;64.00;;;;;;10417395;28;20037;-53
2021/06/26 08:41:40;;;;;;;6.45;5.15;;;20.60;64.00;;;;;;10417321;28;20061;-52
2021/06/26 08:46:44;;;;;;;6.15;5.30;;;20.60;64.00;;;;;;10417023;28;20030;-52
2021/06/26 08:51:45;;;;;;;6.40;5.80;;;20.60;64.00;;;;;;10416942;28;20045;-53
2021/06/26 08:56:47;;;;;;;6.47;5.60;;;20.60;63.90;;;;;;10418474;28;20044;-53
2021/06/26 09:01:48;;;;;;;7.40;5.22;;;20.60;63.90;;;;;;10423024;28;20128;-54
2021/06/26 09:06:55;;;;;;;6.30;5.30;;;20.70;63.90;;;;;;10416361;28;20104;-53
2021/06/26 09:12:10;;;;;;;7.47;6.05;;;20.70;64.00;;;;;;10416301;28;20034;-53
2021/06/26 09:17:12;;;;;;;6.68;5.38;;;20.70;63.90;;;;;;10414927;28;20044;-53
2021/06/26 09:22:13;;;;;;;6.75;5.90;;;20.70;63.90;;;;;;10415635;28;20033;-54
2021/06/26 09:27:17;;;;;;;6.63;5.28;;;20.70;63.90;;;;;;10415513;28;20063;-53
2021/06/26 09:32:27;;;;;;;6.22;5.55;;;20.70;63.90;;;;;;10415342;28;20405;-54
2021/06/26 09:37:33;;;;;;;6.78;5.90;;;20.70;63.90;;;;;;10415215;28;20033;-51
2021/06/26 09:42:37;;;;;;;6.03;5.35;;;20.70;63.90;;;;;;10413910;28;20044;-53
2021/06/26 09:47:46;;;;;;;5.93;4.95;;;20.80;63.90;;;;;;10414965;28;20355;-53
2021/06/26 09:53:03;;;;;;;7.25;5.43;;;20.80;63.90;;;;;;10414373;28;20132;-54
2021/06/26 09:58:13;;;;;;;7.53;5.70;;;20.80;63.80;;;;;;10423124;28;20120;-53
2021/06/26 10:03:19;;;;;;;7.40;6.35;;;20.80;63.80;;;;;;10414450;28;20029;-54
2021/06/26 10:08:21;;;;;;;6.47;5.55;;;20.80;63.80;;;;;;10414110;28;20032;-52
2021/06/26 10:13:22;;;;;;;7.60;6.25;;;20.80;63.70;;;;;;10412976;28;20025;-51
2021/06/26 10:18:24;;;;;;;6.57;5.95;;;20.80;63.70;;;;;;10414215;28;20116;-53
2021/06/26 10:23:34;;;;;;;7.60;6.30;;;20.90;63.80;;;;;;10413150;28;20029;-52
2021/06/26 10:28:48;;;;;;;6.82;5.60;;;20.90;63.60;;;;;;10413713;28;20026;-53
2021/06/26 10:33:49;;;;;;;7.40;6.65;;;20.90;63.70;;;;;;10413757;28;20030;-54
2021/06/26 10:38:50;;;;;;;6.65;5.93;;;20.90;63.60;;;;;;10413890;28;20025;-54
2021/06/26 10:43:56;;;;;;;8.02;6.45;;;20.90;63.50;;;;;;10413857;28;20060;-51
2021/06/26 10:49:03;;;;;;;6.25;5.63;;;21.00;63.50;;;;;;10421534;28;20128;-54
2021/06/26 10:54:17;;;;;;;6.43;5.35;;;21.00;63.50;;;;;;10421401;28;20032;-53
2021/06/26 10:59:20;;;;;;;6.78;5.63;;;21.00;63.40;;;;;;10430148;28;20509;-53
2021/06/26 11:04:22;;;;;;;6.80;6.10;;;21.00;63.40;;;;;;10421029;28;20191;-53
2021/06/26 11:09:22;;;;;;;7.10;6.20;;;21.00;63.40;;;;;;10420711;28;20363;-55
2021/06/26 11:14:24;;;;;;;6.85;5.65;;;21.00;63.30;;;;;;10420856;28;20052;-53
2021/06/26 11:19:34;;;;;;;6.35;5.28;;;21.10;63.20;;;;;;10420423;28;20590;-54
2021/06/26 11:24:40;;;;;;;6.65;5.95;;;21.10;63.20;;;;;;10420381;28;20022;-54
2021/06/26 11:29:44;;;;;;;8.10;6.57;;;21.10;63.10;;;;;;10420067;28;20029;-54
2021/06/26 11:34:51;;;;;;;8.05;6.20;;;21.10;63.00;;;;;;10419857;28;20029;-53
2021/06/26 11:39:52;;;;;;;6.68;5.97;;;21.10;63.10;;;;;;10419734;28;20470;-52
2021/06/26 11:44:53;;;;;;;7.43;5.80;;;21.20;63.20;;;;;;10419454;28;20124;-53
2021/06/26 11:49:54;;;;;;;8.07;6.60;;;21.20;63.20;;;;;;10419208;28;20037;-50
2021/06/26 11:54:59;;;;;;;6.40;5.68;;;21.10;63.00;;;;;;10419161;28;20061;-54
2021/06/26 12:00:00;;;;;;;8.85;7.20;;;21.10;63.00;;;;;;10427752;28;20494;-50
2021/06/26 12:05:02;;;;;;;6.82;6.07;;;21.10;62.90;;;;;;10417705;28;20034;-49
2021/06/26 12:10:06;;;;;;;7.32;6.63;;;21.10;63.00;;;;;;10418335;28;20024;-54
2021/06/26 12:15:11;;;;;;;6.28;5.68;;;21.10;63.00;;;;;;10418500;28;20432;-52
2021/06/26 12:20:13;;;;;;;7.72;6.70;;;21.20;63.10;;;;;;10418043;28;20477;-51
2021/06/26 12:25:17;;;;;;;8.25;6.97;;;21.20;63.10;;;;;;10417880;28;20469;-53
2021/06/26 12:30:18;;;;;;;6.88;6.18;;;21.20;63.00;;;;;;10416941;28;20492;-50
2021/06/26 12:35:29;;;;;;;8.15;7.15;;;21.20;63.10;;;;;;10417779;28;20466;-53
2021/06/26 12:40:38;;;;;;;7.05;6.38;;;21.20;63.00;;;;;;10417441;28;20369;-54
2021/06/26 12:45:51;;;;;;;7.40;6.68;;;21.20;63.10;;;;;;10417285;28;20355;-52
2021/06/26 12:51:16;;;;;;;8.18;7.13;;;21.20;63.00;;;;;;10416900;28;20081;-52
2021/06/26 12:56:21;;;;;;;7.20;6.40;;;21.20;63.00;;;;;;10404863;28;20158;-53
2021/06/26 13:01:33;;;;;;;6.82;6.13;;;21.20;63.10;;;;;;10424924;28;20368;-52
2021/06/26 13:06:55;;;;;;;7.00;6.20;;;21.20;63.10;;;;;;10415938;28;20034;-51
2021/06/26 13:12:07;;;;;;;8.02;6.88;;;21.20;63.00;;;;;;10416516;28;20475;-52
2021/06/26 13:17:10;;;;;;;7.65;6.82;;;21.20;62.90;;;;;;10416250;28;20378;-53
2021/06/26 13:22:10;;;;;;;9.50;6.80;;;21.20;63.00;;;;;;10416142;28;20482;-49
2021/06/26 13:27:12;;;;;;;8.40;7.30;;;21.20;62.90;;;;;;10415956;28;20053;-53
2021/06/26 13:32:14;;;;;;;7.28;6.57;;;21.20;62.80;;;;;;10415235;28;20086;-52
2021/06/26 13:37:15;;;;;;;8.02;7.22;;;21.20;62.80;;;;;;10415374;28;20033;-51
2021/06/26 13:42:16;;;;;;;7.57;6.13;;;21.20;62.80;;;;;;10415598;28;20021;-54
2021/06/26 13:47:17;;;;;;;8.75;7.68;;;21.20;62.60;;;;;;10414886;28;20553;-52
2021/06/26 13:52:18;;;;;;;6.65;6.03;;;21.20;62.80;;;;;;10414449;28;20417;-50
2021/06/26 13:57:19;;;;;;;7.70;6.90;;;21.20;62.70;;;;;;10420856;28;20150;-55
2021/06/26 14:02:20;;;;;;;7.32;6.60;;;21.30;62.60;;;;;;10416622;28;20037;-54
2021/06/26 14:07:21;;;;;;;8.60;6.90;;;21.30;62.80;;;;;;10414420;28;20037;-51
2021/06/26 14:12:22;;;;;;;8.63;7.43;;;21.20;62.80;;;;;;10414055;28;20021;-54
2021/06/26 14:17:23;;;;;;;6.82;6.18;;;21.20;62.70;;;;;;10414440;28;20056;-50
2021/06/26 14:22:24;;;;;;;9.10;7.68;;;21.20;62.80;;;;;;10413151;28;20030;-55
2021/06/26 14:27:25;;;;;;;7.85;7.13;;;21.20;62.80;;;;;;10413926;28;20075;-50
2021/06/26 14:32:25;;;;;;;8.18;7.38;;;21.20;62.80;;;;;;10414065;28;20064;-54
2021/06/26 14:37:26;;;;;;;7.80;7.00;;;21.30;62.80;;;;;;10413520;28;20063;-53
2021/06/26 14:42:27;;;;;;;7.65;6.90;;;21.20;62.80;;;;;;10413785;28;20037;-52
2021/06/26 14:47:28;;;;;;;7.80;7.03;;;21.30;62.90;;;;;;10413615;28;20029;-53
2021/06/26 14:52:28;;;;;;;8.73;7.38;;;21.20;62.80;;;;;;10400131;28;20052;-53
2021/06/26 14:57:29;;;;;;;8.73;7.82;;;21.30;62.80;;;;;;10420639;28;20021;-52
2021/06/26 15:02:30;;;;;;;7.93;7.13;;;21.30;62.80;;;;;;10413944;28;20051;-54
2021/06/26 15:07:30;;;;;;;7.68;6.88;;;21.20;62.80;;;;;;10413087;28;20430;-54
2021/06/26 15:12:31;;;;;;;7.20;6.40;;;21.30;62.80;;;;;;10412936;28;20747;-54
2021/06/26 15:17:32;;;;;;;7.10;6.38;;;21.30;62.80;;;;;;10412021;28;20084;-53
2021/06/26 15:22:34;;;;;;;8.32;7.53;;;21.30;62.80;;;;;;10412992;28;20415;-54
2021/06/26 15:27:35;;;;;;;7.80;7.00;;;21.30;62.70;;;;;;10412678;28;20057;-53
2021/06/26 15:32:35;;;;;;;8.50;7.57;;;21.30;62.70;;;;;;10416467;28;20067;-53
2021/06/26 15:37:36;;;;;;;7.95;7.18;;;21.30;62.70;;;;;;10419833;28;20033;-52
2021/06/26 15:42:37;;;;;;;7.55;6.85;;;21.30;62.80;;;;;;10418341;28;20569;-53
2021/06/26 15:47:38;;;;;;;8.80;7.97;;;21.30;62.70;;;;;;10419486;28;20083;-53
2021/06/26 15:52:41;;;;;;;8.63;7.72;;;21.30;62.60;;;;;;10405933;28;20132;-53
2021/06/26 15:57:41;;;;;;;9.20;8.27;;;21.30;62.60;;;;;;10427088;28;20037;-54
2021/06/26 16:02:42;;;;;;;9.27;7.65;;;21.30;62.60;;;;;;10434225;28;20073;-53
2021/06/26 16:07:46;;;;;;;9.30;8.02;;;21.30;62.60;;;;;;10418652;28;20049;-53
2021/06/26 16:12:47;;;;;;;8.93;8.00;;;21.30;62.60;;;;;;10418599;28;20029;-54
2021/06/26 16:17:48;;;;;;;8.63;7.72;;;21.30;62.60;;;;;;10418838;28;20458;-54
2021/06/26 16:22:48;;;;;;;9.98;8.90;;;21.30;62.70;;;;;;10418095;28;20057;-53
2021/06/26 16:27:49;;;;;;;8.93;7.53;;;21.30;62.60;;;;;;10417914;28;20021;-55
2021/06/26 16:32:50;;;;;;;9.43;8.52;;;21.30;62.60;;;;;;10417879;28;20121;-55
2021/06/26 16:37:58;;;;;;;8.10;7.30;;;21.30;62.60;;;;;;10417861;28;20114;-51
2021/06/26 16:42:59;;;;;;;9.07;8.18;;;21.30;62.60;;;;;;10416357;28;20087;-55
2021/06/26 16:48:00;;;;;;;9.32;7.55;;;21.30;62.60;;;;;;10417213;28;20025;-54
2021/06/26 16:53:00;;;;;;;8.43;7.63;;;21.30;62.50;;;;;;10416894;28;20445;-52
2021/06/26 16:58:02;;;;;;;8.85;7.35;;;21.30;62.60;;;;;;10425568;28;20105;-53
2021/06/26 17:03:02;;;;;;;9.93;7.63;;;21.30;62.60;;;;;;10416806;28;20140;-52
2021/06/26 17:08:03;;;;;;;7.88;6.65;;;21.30;63.10;;;;;;10416514;28;20038;-55
2021/06/26 17:13:04;;;;;;;9.30;8.38;;;21.30;62.50;;;;;;10416038;28;20033;-54
2021/06/26 17:18:05;;;;;;;8.05;7.25;;;21.40;62.50;;;;;;10414689;28;20477;-55
2021/06/26 17:23:07;;;;;;;8.80;7.90;;;21.30;62.40;;;;;;10431430;28;20053;-54
2021/06/26 17:28:08;;;;;;;8.85;7.95;;;21.30;62.40;;;;;;10414534;28;20072;-53
2021/06/26 17:33:09;;;;;;;9.30;8.30;;;21.30;62.40;;;;;;10415707;28;20108;-54
2021/06/26 17:38:09;;;;;;;9.60;8.70;;;21.30;62.40;;;;;;10415185;28;20068;-54
2021/06/26 17:43:10;;;;;;;9.32;8.43;;;21.30;62.40;;;;;;10414819;28;20022;-54
2021/06/26 17:48:11;;;;;;;11.20;9.68;;;21.30;62.40;;;;;;10415114;28;20029;-53
2021/06/26 17:53:12;;;;;;;9.73;8.73;;;21.40;62.40;;;;;;10414391;28;20060;-54
2021/06/26 17:58:13;;;;;;;10.00;7.38;;;21.40;62.40;;;;;;10422899;28;20026;-55
2021/06/26 18:03:14;;;;;;;9.13;8.25;;;21.40;62.40;;;;;;10413188;28;20110;-55
2021/06/26 18:08:16;;;;;;;8.52;7.63;;;21.40;62.40;;;;;;10415076;28;20054;-53
2021/06/26 18:13:17;;;;;;;8.10;7.20;;;21.40;62.40;;;;;;10414275;28;20072;-54
2021/06/26 18:18:17;;;;;;;10.20;9.20;;;21.40;62.30;;;;;;10414676;28;20033;-54
2021/06/26 18:23:18;;;;;;;9.88;8.88;;;21.40;62.30;;;;;;10414246;28;20105;-55
2021/06/26 18:28:19;;;;;;;8.93;8.02;;;21.40;62.40;;;;;;10413942;28;20025;-54
2021/06/26 18:33:19;;;;;;;10.40;9.30;;;21.40;62.40;;;;;;10413975;28;20025;-55
2021/06/26 18:38:20;;;;;;;10.40;9.30;;;21.40;62.40;;;;;;10413871;28;20104;-55
2021/06/26 18:43:21;;;;;;;10.68;9.63;;;21.40;62.40;;;;;;10413501;28;20030;-55
2021/06/26 18:48:22;;;;;;;9.57;8.57;;;21.40;62.30;;;;;;10413578;28;20026;-54
2021/06/26 18:53:22;;;;;;;9.10;8.20;;;21.40;62.30;;;;;;10413478;28;20095;-54
2021/06/26 18:58:23;;;;;;;8.45;7.57;;;21.40;62.40;;;;;;10422869;28;20037;-53
2021/06/26 19:03:24;;;;;;;9.60;8.13;;;21.40;62.40;;;;;;10413120;28;20061;-55
2021/06/26 19:08:24;;;;;;;9.02;8.13;;;21.40;62.40;;;;;;10418958;28;20057;-55
2021/06/26 19:13:27;;;;;;;9.05;8.15;;;21.40;62.30;;;;;;10420936;28;20091;-55
2021/06/26 19:18:27;;;;;;;9.18;7.88;;;21.40;62.30;;;;;;10420805;28;20381;-54
2021/06/26 19:23:28;;;;;;;9.00;8.10;;;21.40;62.40;;;;;;10420676;28;20035;-54
2021/06/26 19:28:30;;;;;;;9.43;8.43;;;21.40;62.40;;;;;;10418984;28;20022;-55
2021/06/26 19:33:32;;;;;;;8.82;7.82;;;21.40;62.50;;;;;;10420200;28;20103;-54
2021/06/26 19:38:33;;;;;;;8.95;8.15;;;21.40;62.50;;;;;;10419981;28;20374;-54
2021/06/26 19:43:34;;;;;;;9.63;8.63;;;21.40;62.50;;;;;;10418779;28;20034;-54
2021/06/26 19:48:37;;;;;;;9.73;8.82;;;21.40;62.60;;;;;;10419533;28;20042;-55
2021/06/26 19:53:38;;;;;;;9.05;8.15;;;21.40;62.60;;;;;;10405157;28;20068;-54
2021/06/26 19:58:39;;;;;;;9.75;8.75;;;21.40;62.60;;;;;;10427527;28;20021;-55
2021/06/26 20:03:40;;;;;;;9.15;8.25;;;21.40;62.60;;;;;;10418962;28;20077;-54
2021/06/26 20:08:43;;;;;;;9.40;8.02;;;21.40;62.60;;;;;;10417935;28;20025;-55
2021/06/26 20:13:44;;;;;;;8.95;8.05;;;21.40;62.60;;;;;;10418853;28;20395;-54
2021/06/26 20:18:45;;;;;;;9.60;8.55;;;21.40;62.70;;;;;;10417292;28;20044;-55
2021/06/26 20:23:46;;;;;;;9.40;8.15;;;21.40;62.70;;;;;;10418184;28;20465;-54
2021/06/26 20:28:47;;;;;;;9.85;8.32;;;21.40;62.70;;;;;;10418464;28;20374;-55
2021/06/26 20:33:48;;;;;;;9.52;8.43;;;21.40;62.80;;;;;;10417945;28;20689;-53
2021/06/26 20:38:48;;;;;;;8.63;7.72;;;21.40;62.80;;;;;;10417879;28;20034;-52
2021/06/26 20:43:49;;;;;;;9.93;8.68;;;21.40;62.80;;;;;;10416920;28;20033;-54
2021/06/26 20:48:50;;;;;;;9.13;8.23;;;21.40;62.80;;;;;;10416654;28;20045;-53
2021/06/26 20:53:50;;;;;;;9.13;8.23;;;21.40;62.90;;;;;;10416518;28;20091;-52
2021/06/26 20:58:52;;;;;;;9.35;8.02;;;21.40;63.50;;;;;;10425806;28;20398;-54
2021/06/26 21:03:53;;;;;;;9.57;8.57;;;21.30;62.80;;;;;;10414796;28;20467;-50
2021/06/26 21:08:53;;;;;;;9.73;8.75;;;21.40;62.90;;;;;;10416028;28;20060;-54
2021/06/26 21:13:54;;;;;;;9.32;8.43;;;21.40;62.90;;;;;;10415581;28;20453;-50
2021/06/26 21:18:55;;;;;;;8.48;7.57;;;21.40;62.90;;;;;;10415476;28;20036;-52
2021/06/26 21:23:55;;;;;;;9.40;8.43;;;21.40;62.90;;;;;;10415846;28;20516;-55
2021/06/26 21:28:56;;;;;;;9.32;8.40;;;21.40;62.90;;;;;;10414691;28;20029;-54
2021/06/26 21:33:57;;;;;;;9.43;8.52;;;21.40;63.10;;;;;;10413810;28;20064;-54
2021/06/26 21:38:58;;;;;;;9.98;9.00;;;21.30;63.00;;;;;;10414782;28;20034;-54
2021/06/26 21:43:58;;;;;;;10.15;9.05;;;21.40;63.00;;;;;;10414582;28;20063;-54
2021/06/26 21:48:59;;;;;;;10.35;9.25;;;21.30;63.00;;;;;;10414919;28;20073;-53
2021/06/26 21:54:00;;;;;;;11.00;9.75;;;21.40;63.10;;;;;;10401112;28;20535;-54
2021/06/26 21:59:01;;;;;;;10.60;9.63;;;21.30;63.00;;;;;;10423234;28;20021;-54
2021/06/26 22:04:02;;;;;;;10.45;9.15;;;21.40;63.00;;;;;;10412957;28;20390;-50
2021/06/26 22:09:06;;;;;;;10.65;9.55;;;21.30;63.00;;;;;;10413909;28;20036;-53
2021/06/26 22:14:07;;;;;;;10.70;9.60;;;21.30;63.00;;;;;;10414406;28;20084;-53
2021/06/26 22:19:08;;;;;;;10.98;9.88;;;21.30;63.00;;;;;;10412487;28;20095;-53
2021/06/26 22:24:09;;;;;;;10.43;9.40;;;21.30;63.00;;;;;;10413567;28;20076;-54
2021/06/26 22:29:10;;;;;;;10.07;9.07;;;21.30;63.10;;;;;;10413495;28;20450;-54
2021/06/26 22:34:11;;;;;;;10.52;9.50;;;21.30;63.00;;;;;;10412156;28;20025;-54
2021/06/26 22:39:11;;;;;;;11.38;10.27;;;21.30;63.10;;;;;;10428763;28;20386;-54
2021/06/26 22:44:12;;;;;;;10.10;9.10;;;21.30;63.00;;;;;;10420681;28;20458;-54
2021/06/26 22:49:13;;;;;;;10.75;9.77;;;21.30;63.00;;;;;;10421429;28;20049;-52
2021/06/26 22:54:16;;;;;;;11.07;10.00;;;21.30;63.00;;;;;;10421198;28;20430;-51
2021/06/26 22:59:16;;;;;;;11.25;10.20;;;21.30;63.00;;;;;;10430143;28;20033;-53
2021/06/26 23:04:17;;;;;;;12.38;11.18;;;21.30;63.00;;;;;;10420892;28;20052;-53
2021/06/26 23:09:18;;;;;;;11.55;10.20;;;21.30;63.00;;;;;;10420590;28;20061;-54
2021/06/26 23:14:19;;;;;;;11.48;10.38;;;21.30;63.10;;;;;;10420710;28;20132;-53
2021/06/26 23:19:21;;;;;;;11.27;10.20;;;21.30;63.10;;;;;;10435622;28;20053;-53
2021/06/26 23:24:21;;;;;;;10.55;9.50;;;21.30;63.10;;;;;;10418877;28;20037;-53
2021/06/26 23:29:22;;;;;;;11.02;9.88;;;21.30;63.10;;;;;;10418684;28;20112;-52
2021/06/26 23:34:23;;;;;;;11.95;10.85;;;21.30;63.10;;;;;;10419737;28;20033;-54
2021/06/26 23:39:24;;;;;;;12.55;11.25;;;21.30;63.10;;;;;;10418672;28;20068;-54
2021/06/26 23:44:25;;;;;;;11.30;10.20;;;21.30;63.10;;;;;;10419354;28;20033;-54
2021/06/26 23:49:25;;;;;;;12.35;11.13;;;21.30;63.10;;;;;;10419016;28;20485;-51
2021/06/26 23:54:26;;;;;;;11.95;10.75;;;21.30;63.10;;;;;;10418511;28;20033;-50
2021/06/26 23:59:27;;;;;;;12.40;11.30;;;21.30;63.20;;;;;;10428075;28;20556;-54
